Time;durP1;ratioP1;P1;durP2;ratioP2;P2;SDS_P1;SDS_P2;PMS_P1;PMS_P2;Temp;Humidity;BMP_temperature;BMP_pressure;BME280_temperature;BME280_humidity;BME280_pressure;Samples;Min_cycle;Max_cycle;Signal;HPM_P1;HPM_P2
2022/10/09 00:01:34;;;;;;;;;85.25;81.50;;;;;19.51;57.01;99731.75;5094547;28;10904;-78
2022/10/09 00:04:04;;;;;;;;;82.50;78.00;;;;;19.53;56.92;99728.16;5093324;28;10771;-82
2022/10/09 00:06:34;;;;;;;;;81.00;77.25;;;;;19.52;56.85;99730.84;5088081;27;11055;-77
2022/10/09 00:09:05;;;;;;;;;82.00;76.25;;;;;19.52;56.93;99725.56;5109306;27;10593;-78
2022/10/09 00:11:34;;;;;;;;;85.00;81.00;;;;;19.51;56.78;99723.81;5110750;27;10608;-77
2022/10/09 00:14:04;;;;;;;;;81.75;78.00;;;;;19.50;57.07;99722.13;5058478;28;10784;-79
2022/10/09 00:16:32;;;;;;;;;83.75;78.25;;;;;19.46;57.22;99722.22;5076820;28;10765;-79
2022/10/09 00:19:01;;;;;;;;;83.25;77.25;;;;;19.52;57.00;99728.22;5087600;27;10981;-79
2022/10/09 00:21:32;;;;;;;;;87.75;79.25;;;;;19.52;57.26;99722.94;5132588;27;10826;-79
2022/10/09 00:24:03;;;;;;;;;85.75;80.50;;;;;19.48;57.51;99720.38;5113847;27;11072;-79
2022/10/09 00:26:33;;;;;;;;;89.00;81.75;;;;;19.52;57.08;99715.00;5103280;27;11884;-79
2022/10/09 00:29:02;;;;;;;;;84.25;78.75;;;;;19.48;57.64;99722.16;5096904;27;11238;-77
2022/10/09 00:31:31;;;;;;;;;86.50;84.50;;;;;19.30;58.57;99715.72;5113369;27;11077;-78
2022/10/09 00:34:00;;;;;;;;;95.50;87.75;;;;;19.27;58.92;99718.47;5095747;27;11039;-79
2022/10/09 00:36:28;;;;;;;;;92.50;89.25;;;;;19.33;58.50;99725.34;5076104;28;12034;-77
2022/10/09 00:38:57;;;;;;;;;86.25;82.00;;;;;19.36;58.45;99723.44;5093251;28;11684;-80
2022/10/09 00:41:28;;;;;;;;;92.75;87.50;;;;;19.23;59.34;99719.50;5092975;28;11212;-79
2022/10/09 00:44:00;;;;;;;;;88.50;80.75;;;;;19.36;58.86;99718.16;5095077;27;11320;-78
2022/10/09 00:46:35;;;;;;;;;83.50;82.50;;;;;19.40;58.47;99705.69;5088542;28;11481;-78
2022/10/09 00:49:19;;;;;;;;;88.50;83.00;;;;;19.43;58.75;99713.50;5055011;28;11055;-79
2022/10/09 00:51:50;;;;;;;;;83.00;79.75;;;;;19.39;58.67;99711.91;5054320;28;11100;-78
2022/10/09 00:54:22;;;;;;;;;89.75;86.00;;;;;19.41;58.60;99712.69;5088190;28;10908;-77
2022/10/09 00:56:51;;;;;;;;;85.25;79.25;;;;;19.40;58.62;99706.56;5071390;28;11262;-79
2022/10/09 00:59:22;;;;;;;;;84.25;80.75;;;;;19.43;58.48;99703.81;5070641;28;11627;-79
2022/10/09 01:01:50;;;;;;;;;90.00;82.50;;;;;19.47;58.51;99701.94;5069711;28;11105;-77
2022/10/09 01:04:19;;;;;;;;;93.75;87.75;;;;;19.49;58.53;99697.47;5052873;28;11181;-80
2022/10/09 01:07:00;;;;;;;;;91.00;86.75;;;;;19.50;59.12;99695.66;5071929;28;11647;-79
2022/10/09 01:09:39;;;;;;;;;90.25;87.50;;;;;19.50;58.90;99693.03;5054443;28;11484;-77
2022/10/09 01:12:19;;;;;;;;;90.50;86.75;;;;;19.53;58.95;99690.25;5069049;28;12284;-78
2022/10/09 01:15:00;;;;;;;;;89.50;82.25;;;;;19.59;58.75;99698.00;5065495;28;11548;-79
2022/10/09 01:17:35;;;;;;;;;88.00;82.75;;;;;19.53;59.12;99693.78;5065410;28;11680;-80
2022/10/09 01:20:25;;;;;;;;;95.25;90.00;;;;;19.61;58.62;99693.50;5102817;28;11544;-77
2022/10/09 01:23:11;;;;;;;;;90.75;88.25;;;;;19.60;58.79;99687.38;5091641;28;11899;-78
2022/10/09 01:25:53;;;;;;;;;85.75;82.00;;;;;19.57;59.06;99690.09;5087227;28;11312;-79
2022/10/09 01:28:27;;;;;;;;;85.75;81.00;;;;;19.50;59.33;99679.78;5026236;28;11327;-77
2022/10/09 01:30:59;;;;;;;;;90.75;86.75;;;;;19.53;58.93;99683.19;5071591;28;11191;-79
2022/10/09 01:33:30;;;;;;;;;92.25;87.50;;;;;19.51;59.00;99685.03;5112550;28;11131;-78
2022/10/09 01:36:00;;;;;;;;;90.25;87.25;;;;;19.54;58.94;99686.69;5109595;28;11283;-78
2022/10/09 01:38:30;;;;;;;;;86.00;79.50;;;;;19.55;58.69;99693.72;5120224;27;11254;-78
2022/10/09 01:41:00;;;;;;;;;88.25;85.25;;;;;19.55;58.92;99686.66;5106620;28;10974;-79
2022/10/09 01:43:30;;;;;;;;;88.75;84.25;;;;;19.54;58.95;99692.84;5095194;28;11178;-79
2022/10/09 01:46:18;;;;;;;;;84.75;80.75;;;;;19.62;58.88;99690.81;5102777;27;11265;-79
2022/10/09 01:48:54;;;;;;;;;92.50;85.75;;;;;19.52;59.29;99697.31;5089239;27;11159;-79
2022/10/09 01:51:27;;;;;;;;;90.50;86.00;;;;;19.49;59.22;99697.47;5058559;28;11332;-79
2022/10/09 01:54:02;;;;;;;;;92.50;85.50;;;;;19.48;59.16;99701.00;5090036;27;11956;-78
2022/10/09 01:56:37;;;;;;;;;82.00;77.00;;;;;19.43;59.30;99701.19;5108249;28;12494;-79
2022/10/09 01:59:13;;;;;;;;;88.50;84.25;;;;;19.38;59.52;99703.09;5092569;27;11520;-78
2022/10/09 02:01:45;;;;;;;;;91.25;85.50;;;;;19.36;59.44;99701.44;5093947;27;11332;-80
2022/10/09 02:04:16;;;;;;;;;89.75;82.75;;;;;19.28;59.66;99697.28;5092375;28;10825;-81
2022/10/09 02:06:47;;;;;;;;;86.25;84.25;;;;;19.22;59.78;99700.09;5069522;27;11063;-81
2022/10/09 02:09:18;;;;;;;;;85.75;84.00;;;;;19.26;59.65;99707.03;5105020;27;11168;-79
2022/10/09 02:11:53;;;;;;;;;89.75;82.50;;;;;19.32;59.54;99707.72;5075250;27;11163;-79
2022/10/09 02:14:24;;;;;;;;;89.00;84.50;;;;;19.24;59.57;99710.63;5110343;27;11069;-77
2022/10/09 02:17:02;;;;;;;;;88.50;82.50;;;;;19.32;59.45;99719.19;5107710;28;11160;-77
2022/10/09 02:19:37;;;;;;;;;89.50;83.75;;;;;19.15;60.24;99724.16;5089697;28;11337;-79
2022/10/09 02:22:13;;;;;;;;;88.75;85.00;;;;;19.16;60.00;99721.47;5092884;28;11090;-79
2022/10/09 02:24:43;;;;;;;;;87.50;83.50;;;;;19.11;59.93;99728.69;5111488;28;11798;-77
2022/10/09 02:27:13;;;;;;;;;87.00;84.00;;;;;18.92;60.90;99725.75;5116374;27;11182;-78
2022/10/09 02:29:45;;;;;;;;;85.50;80.75;;;;;18.97;60.86;99733.56;5086997;28;10985;-78
2022/10/09 02:32:14;;;;;;;;;90.50;82.50;;;;;18.98;60.61;99730.88;5105006;28;10857;-78
2022/10/09 02:34:42;;;;;;;;;85.25;81.25;;;;;19.03;60.65;99730.72;5116285;27;11023;-82
2022/10/09 02:37:11;;;;;;;;;92.00;87.50;;;;;18.75;61.86;99728.03;5109027;28;11225;-78
2022/10/09 02:39:40;;;;;;;;;81.75;76.75;;;;;18.84;61.13;99727.78;5090608;27;10970;-78
2022/10/09 02:42:09;;;;;;;;;88.50;84.25;;;;;18.87;60.80;99731.19;5075641;28;10869;-76
2022/10/09 02:44:37;;;;;;;;;92.25;85.25;;;;;18.88;60.97;99738.22;5111056;27;10835;-79
2022/10/09 02:47:08;;;;;;;;;90.00;83.25;;;;;18.87;60.94;99735.63;5090260;27;11001;-80
2022/10/09 02:49:36;;;;;;;;;85.75;78.75;;;;;18.87;60.97;99738.28;5073411;28;10831;-81
2022/10/09 02:52:05;;;;;;;;;88.00;80.25;;;;;18.88;60.73;99738.22;5071950;28;10708;-76
2022/10/09 02:54:37;;;;;;;;;84.25;80.75;;;;;18.89;60.93;99733.81;5088138;27;11621;-82
2022/10/09 02:57:05;;;;;;;;;86.75;81.50;;;;;18.86;60.76;99742.66;5062871;28;10989;-80
2022/10/09 02:59:34;;;;;;;;;85.25;79.00;;;;;18.84;61.06;99747.13;5030820;28;10756;-79
2022/10/09 03:02:03;;;;;;;;;83.25;80.25;;;;;18.80;60.96;99750.78;5047889;28;10768;-78
2022/10/09 03:04:33;;;;;;;;;87.25;83.00;;;;;18.80;61.25;99752.56;5004810;28;10945;-78
2022/10/09 03:07:02;;;;;;;;;83.75;76.75;;;;;18.81;60.97;99749.91;5004994;28;11765;-76
2022/10/09 03:09:31;;;;;;;;;83.25;76.00;;;;;18.78;60.68;99751.72;4988612;28;10738;-81
2022/10/09 03:12:01;;;;;;;;;85.75;78.75;;;;;18.77;60.55;99752.63;4990384;28;10712;-79
2022/10/09 03:14:29;;;;;;;;;87.25;81.50;;;;;18.77;61.09;99750.00;4991507;28;10787;-77
2022/10/09 03:16:58;;;;;;;;;88.50;82.00;;;;;18.76;60.92;99764.13;5002161;28;10907;-79
2022/10/09 03:19:26;;;;;;;;;84.25;82.25;;;;;18.68;61.26;99764.38;4957703;28;10648;-79
2022/10/09 03:21:56;;;;;;;;;87.00;80.25;;;;;18.69;61.17;99769.59;4969939;28;10881;-78
2022/10/09 03:24:25;;;;;;;;;83.00;79.50;;;;;18.64;61.53;99760.94;4956021;28;10728;-79
2022/10/09 03:26:53;;;;;;;;;83.75;76.00;;;;;18.64;61.56;99760.09;4942366;28;10714;-81
2022/10/09 03:29:22;;;;;;;;;84.00;81.00;;;;;18.65;61.22;99761.81;5028940;28;10547;-79
2022/10/09 03:31:51;;;;;;;;;84.00;78.50;;;;;18.65;60.98;99765.31;5037559;28;10478;-79
2022/10/09 03:34:20;;;;;;;;;84.25;79.50;;;;;18.64;61.15;99766.22;5069174;28;10607;-77
2022/10/09 03:36:49;;;;;;;;;83.25;77.00;;;;;18.67;61.21;99767.91;5109354;27;10507;-79
2022/10/09 03:39:19;;;;;;;;;82.25;75.50;;;;;18.69;60.75;99768.72;5111425;27;10746;-78
2022/10/09 03:41:47;;;;;;;;;80.75;75.25;;;;;18.71;61.05;99774.81;5095795;27;10509;-78
2022/10/09 03:44:16;;;;;;;;;85.75;84.00;;;;;18.74;60.86;99769.44;5075001;27;10520;-80
2022/10/09 03:46:45;;;;;;;;;83.75;79.75;;;;;18.75;60.96;99776.47;5091725;27;10654;-78
2022/10/09 03:49:14;;;;;;;;;83.75;77.50;;;;;18.79;60.61;99762.25;5089636;27;10599;-78
2022/10/09 03:51:42;;;;;;;;;84.50;77.75;;;;;18.78;60.76;99772.88;5093028;27;10343;-78
2022/10/09 03:54:11;;;;;;;;;83.50;77.00;;;;;18.80;60.41;99779.84;5041842;27;11610;-77
2022/10/09 03:56:41;;;;;;;;;80.75;73.75;;;;;18.82;60.34;99771.91;5093172;28;10635;-79
2022/10/09 03:59:10;;;;;;;;;93.75;88.50;;;;;18.82;60.40;99774.53;5092791;27;10530;-80
2022/10/09 04:01:38;;;;;;;;;90.75;87.50;;;;;18.82;60.65;99780.69;5075678;27;11189;-81
2022/10/09 04:04:07;;;;;;;;;94.50;91.50;;;;;18.84;60.63;99775.34;5092436;27;11220;-80
2022/10/09 04:06:35;;;;;;;;;78.50;68.25;;;;;18.82;60.37;99771.91;5074572;27;11486;-79
2022/10/09 04:09:04;;;;;;;;;83.25;78.50;;;;;18.77;60.77;99785.22;5110812;27;10588;-78
2022/10/09 04:11:33;;;;;;;;;83.25;77.50;;;;;18.74;60.87;99781.81;5075784;28;10748;-79
2022/10/09 04:14:03;;;;;;;;;80.50;72.50;;;;;18.75;60.84;99780.88;5110973;28;10487;-81
2022/10/09 04:16:33;;;;;;;;;81.25;74.25;;;;;18.72;60.67;99787.13;5086214;27;11010;-78
2022/10/09 04:19:02;;;;;;;;;85.00;80.50;;;;;18.72;60.93;99787.13;5092923;28;10426;-78
2022/10/09 04:21:31;;;;;;;;;85.25;76.75;;;;;18.68;60.95;99782.84;5110579;27;10600;-78
2022/10/09 04:24:02;;;;;;;;;83.00;77.00;;;;;18.66;61.14;99785.53;5107295;27;10607;-80
2022/10/09 04:26:30;;;;;;;;;84.25;79.75;;;;;18.61;61.31;99790.09;5091939;28;10261;-78
2022/10/09 04:28:59;;;;;;;;;78.75;71.00;;;;;18.60;61.47;99792.75;5107191;27;10495;-78
2022/10/09 04:31:29;;;;;;;;;83.00;79.50;;;;;18.57;61.73;99792.88;5052371;28;10232;-78
2022/10/09 04:33:58;;;;;;;;;85.25;82.00;;;;;18.46;62.16;99798.47;5067597;28;10453;-79
2022/10/09 04:36:26;;;;;;;;;84.00;76.50;;;;;18.49;61.88;99796.59;5069267;28;10510;-77
2022/10/09 04:38:55;;;;;;;;;80.75;74.75;;;;;18.47;61.91;99800.22;5080132;28;10434;-80
2022/10/09 04:41:23;;;;;;;;;80.75;74.50;;;;;18.28;62.75;99800.72;5049499;28;10447;-80
2022/10/09 04:43:54;;;;;;;;;90.25;81.25;;;;;18.29;62.78;99807.72;5066177;28;10476;-78
2022/10/09 04:46:23;;;;;;;;;94.50;88.50;;;;;18.33;62.84;99810.28;5065907;28;10937;-78
2022/10/09 04:48:54;;;;;;;;;82.75;76.00;;;;;18.28;63.24;99807.78;5085964;28;11655;-81
2022/10/09 04:51:22;;;;;;;;;82.50;75.00;;;;;18.33;62.69;99799.72;5053325;28;10261;-79
2022/10/09 04:53:51;;;;;;;;;84.75;80.00;;;;;18.35;62.78;99798.75;5052729;28;10301;-79
2022/10/09 04:56:20;;;;;;;;;81.50;74.00;;;;;18.38;62.58;99805.75;5077230;28;10510;-78
2022/10/09 04:58:49;;;;;;;;;84.25;76.75;;;;;18.18;63.50;99811.56;5019217;28;10351;-79
2022/10/09 05:01:21;;;;;;;;;82.75;75.25;;;;;18.26;63.55;99799.91;5085856;28;10681;-78
2022/10/09 05:03:50;;;;;;;;;85.00;77.75;;;;;18.31;63.05;99808.53;5104049;27;10343;-79
2022/10/09 05:06:21;;;;;;;;;85.75;80.75;;;;;18.37;62.89;99809.28;5096708;27;10356;-78
2022/10/09 05:08:50;;;;;;;;;84.25;78.75;;;;;18.34;63.18;99818.16;5106560;27;10403;-79
2022/10/09 05:11:21;;;;;;;;;83.50;77.50;;;;;18.27;63.32;99821.88;5103739;27;10769;-80
2022/10/09 05:13:51;;;;;;;;;100.50;91.75;;;;;18.35;63.50;99814.59;5102383;27;10368;-80
2022/10/09 05:16:22;;;;;;;;;88.00;83.75;;;;;18.12;64.24;99831.94;5104688;27;12309;-78
2022/10/09 05:18:53;;;;;;;;;84.25;78.50;;;;;18.30;63.61;99835.00;5114123;27;11735;-78
2022/10/09 05:21:26;;;;;;;;;83.00;77.25;;;;;18.39;63.59;99832.13;5122083;27;10503;-76
2022/10/09 05:23:55;;;;;;;;;80.25;73.50;;;;;18.45;63.16;99839.84;5117769;27;10293;-77
2022/10/09 05:26:27;;;;;;;;;82.50;76.25;;;;;18.36;63.74;99844.53;5110021;27;10298;-79
2022/10/09 05:28:55;;;;;;;;;86.75;77.75;;;;;18.15;64.64;99846.84;5093301;27;11484;-79
2022/10/09 05:31:25;;;;;;;;;98.50;92.75;;;;;18.35;63.55;99834.88;5109866;28;10995;-76
2022/10/09 05:33:55;;;;;;;;;84.25;79.50;;;;;18.41;63.40;99848.78;5121988;27;11483;-77
2022/10/09 05:36:25;;;;;;;;;84.00;75.75;;;;;18.52;63.27;99848.47;5092766;27;10632;-78
2022/10/09 05:38:54;;;;;;;;;128.00;116.75;;;;;18.63;63.04;99854.31;5078392;27;10396;-78
2022/10/09 05:41:23;;;;;;;;;94.00;86.25;;;;;18.74;62.73;99855.78;5096050;27;11805;-80
2022/10/09 05:43:51;;;;;;;;;85.25;75.75;;;;;18.76;62.49;99860.09;5094518;27;11108;-78
2022/10/09 05:46:23;;;;;;;;;79.50;73.50;;;;;18.84;62.24;99865.19;5101330;28;10604;-77
2022/10/09 05:48:53;;;;;;;;;80.25;73.25;;;;;18.92;62.09;99857.88;5081825;28;10191;-78
2022/10/09 05:51:25;;;;;;;;;172.33;155.67;;;;;18.98;61.92;99855.09;5100544;28;10104;-80
2022/10/09 05:53:55;;;;;;;;;84.00;81.25;;;;;19.08;61.78;99860.97;5078376;28;11547;-78
2022/10/09 05:56:26;;;;;;;;;82.50;76.75;;;;;19.17;61.41;99875.66;5074601;28;10911;-79
2022/10/09 05:58:57;;;;;;;;;77.75;68.75;;;;;19.19;61.31;99868.56;5093872;27;10537;-80
2022/10/09 06:01:28;;;;;;;;;78.50;71.50;;;;;19.20;61.30;99865.84;5117213;27;10373;-79
2022/10/09 06:03:58;;;;;;;;;79.00;70.25;;;;;19.11;61.54;99887.31;5085668;27;10281;-79
2022/10/09 06:06:30;;;;;;;;;80.25;71.00;;;;;18.81;62.57;99886.41;5094478;27;10319;-80
2022/10/09 06:08:59;;;;;;;;;80.00;75.25;;;;;18.54;63.47;99886.25;5085719;28;11188;-75
2022/10/09 06:11:31;;;;;;;;;79.75;71.50;;;;;18.66;63.31;99895.63;5090069;28;11525;-77
2022/10/09 06:14:01;;;;;;;;;81.00;74.50;;;;;18.54;63.56;99899.47;5074113;28;11113;-77
2022/10/09 06:16:32;;;;;;;;;83.00;74.75;;;;;18.67;63.33;99900.00;5110013;27;11696;-73
2022/10/09 06:19:02;;;;;;;;;82.75;76.25;;;;;18.73;63.13;99899.81;5110080;28;10444;-76
2022/10/09 06:21:32;;;;;;;;;78.75;71.00;;;;;18.94;62.89;99900.13;5064055;28;10443;-80
2022/10/09 06:24:23;;;;;;;;;80.75;71.25;;;;;18.95;62.28;99904.53;5023612;28;10364;-77
2022/10/09 06:26:56;;;;;;;;;106.00;100.75;;;;;18.63;63.17;99908.91;5048697;28;10988;-78
2022/10/09 06:29:28;;;;;;;;;82.50;78.00;;;;;18.40;64.26;99918.31;5076635;28;11593;-76
2022/10/09 06:31:57;;;;;;;;;78.75;68.00;;;;;18.71;63.26;99917.47;5047298;28;10473;-79
2022/10/09 06:34:26;;;;;;;;;80.00;72.50;;;;;18.89;62.76;99917.00;5048768;28;10224;-78
2022/10/09 06:36:56;;;;;;;;;78.00;70.25;;;;;18.81;62.96;99912.84;5045967;28;9959;-75
2022/10/09 06:39:26;;;;;;;;;100.75;92.50;;;;;18.65;63.42;99920.31;5048838;28;10187;-74
2022/10/09 06:41:54;;;;;;;;;76.75;68.00;;;;;18.83;63.17;99918.97;5053426;28;11494;-75
2022/10/09 06:44:43;;;;;;;;;76.25;66.25;;;;;18.79;63.46;99919.91;5058875;27;10116;-74
2022/10/09 06:47:11;;;;;;;;;76.00;65.50;;;;;19.03;62.19;99919.22;5106330;28;10209;-76
2022/10/09 06:49:40;;;;;;;;;81.25;75.75;;;;;19.02;62.55;99927.22;5112528;27;9953;-75
2022/10/09 06:52:10;;;;;;;;;79.50;71.50;;;;;18.68;63.59;99926.38;5123256;27;10690;-76
2022/10/09 06:54:39;;;;;;;;;80.25;72.00;;;;;18.82;63.28;99933.06;5089937;28;10200;-77
2022/10/09 06:57:07;;;;;;;;;76.75;66.25;;;;;18.31;65.44;99942.34;5073275;28;10150;-75
2022/10/09 06:59:36;;;;;;;;;78.75;68.75;;;;;18.59;64.40;99939.81;5107884;28;10260;-76
2022/10/09 07:02:04;;;;;;;;;80.00;73.00;;;;;18.63;63.87;99937.97;5120632;27;10037;-75
2022/10/09 07:04:33;;;;;;;;;77.50;67.50;;;;;18.40;64.65;99938.59;5110493;28;10195;-76
2022/10/09 07:07:02;;;;;;;;;77.75;66.00;;;;;18.66;63.72;99938.75;5103014;27;10406;-75
2022/10/09 07:09:32;;;;;;;;;76.25;68.00;;;;;18.72;63.19;99948.28;5097066;28;10236;-77
2022/10/09 07:12:00;;;;;;;;;78.25;66.50;;;;;18.75;63.71;99944.69;5100872;27;10182;-80
2022/10/09 07:14:29;;;;;;;;;78.75;67.75;;;;;18.85;63.06;99954.13;5133291;27;10130;-75
2022/10/09 07:16:57;;;;;;;;;78.50;69.75;;;;;18.73;63.49;99952.66;5085354;28;10094;-75
2022/10/09 07:19:26;;;;;;;;;79.25;71.50;;;;;18.95;62.96;99952.09;5112337;27;10049;-74
2022/10/09 07:21:55;;;;;;;;;77.75;68.50;;;;;18.98;62.51;99957.28;5116051;27;10225;-76
2022/10/09 07:24:24;;;;;;;;;77.25;67.75;;;;;18.78;63.49;99963.97;5080558;28;10042;-78
2022/10/09 07:26:54;;;;;;;;;77.75;67.75;;;;;19.15;62.32;99962.09;5093949;28;10051;-81
2022/10/09 07:29:23;;;;;;;;;76.00;67.00;;;;;19.35;61.63;99965.00;5112683;28;10154;-77
2022/10/09 07:31:51;;;;;;;;;79.75;73.00;;;;;19.39;61.19;99969.28;5085580;27;10025;-77
2022/10/09 07:34:20;;;;;;;;;90.75;85.00;;;;;18.96;62.89;99970.56;5098096;27;10278;-75
2022/10/09 07:36:49;;;;;;;;;83.25;78.50;;;;;19.19;62.07;99975.19;5095516;27;11201;-79
2022/10/09 07:39:18;;;;;;;;;94.50;85.75;;;;;19.22;61.89;99963.66;5108456;28;11094;-80
2022/10/09 07:41:50;;;;;;;;;92.50;84.00;;;;;19.23;61.60;99968.03;5110265;28;10902;-79
2022/10/09 07:44:20;;;;;;;;;95.50;84.50;;;;;19.10;62.04;99962.22;5097032;28;10891;-81
2022/10/09 07:46:49;;;;;;;;;93.25;88.50;;;;;19.21;62.01;99960.13;5100044;28;10957;-78
2022/10/09 07:49:18;;;;;;;;;90.75;87.25;;;;;18.93;62.90;99970.63;5115809;28;11131;-77
2022/10/09 07:51:47;;;;;;;;;82.25;77.25;;;;;18.42;65.15;99971.09;5129148;28;11302;-79
2022/10/09 07:54:15;;;;;;;;;79.00;68.75;;;;;18.16;65.87;99967.34;5127242;27;11007;-77
2022/10/09 07:56:43;;;;;;;;;83.75;80.50;;;;;18.69;64.68;99965.09;5108944;27;10167;-77
2022/10/09 07:59:16;;;;;;;;;81.00;71.25;;;;;19.01;63.33;99966.00;5120436;27;10787;-79
2022/10/09 08:01:46;;;;;;;;;76.00;64.75;;;;;19.02;62.92;99965.09;5122992;27;10280;-82
2022/10/09 08:04:15;;;;;;;;;75.50;61.75;;;;;19.41;62.12;99966.59;5104771;27;10120;-80
2022/10/09 08:06:44;;;;;;;;;75.50;66.25;;;;;19.71;61.20;99956.84;5120435;27;9563;-80
2022/10/09 08:09:12;;;;;;;;;75.50;67.50;;;;;19.64;60.70;99958.84;5117455;28;9880;-79
2022/10/09 08:11:41;;;;;;;;;73.50;61.75;;;;;20.01;59.94;99954.19;5047803;28;9866;-81
2022/10/09 08:14:12;;;;;;;;;74.75;64.50;;;;;20.20;59.53;99951.78;5044415;28;9701;-84
2022/10/09 08:16:48;;;;;;;;;74.00;63.00;;;;;19.82;59.57;99960.06;5096111;28;10172;-80
2022/10/09 08:19:16;;;;;;;;;71.75;58.75;;;;;20.10;59.03;99951.22;5098472;27;10166;-79
2022/10/09 08:21:48;;;;;;;;;68.25;54.75;;;;;20.45;58.30;99950.03;5122766;27;9782;-79
2022/10/09 08:24:19;;;;;;;;;73.00;62.00;;;;;19.64;60.33;99965.88;5116713;27;9552;-81
2022/10/09 08:26:48;;;;;;;;;74.25;63.75;;;;;18.74;63.61;99972.03;5119216;27;10007;-84
2022/10/09 08:29:19;;;;;;;;;72.75;65.25;;;;;18.60;64.66;99967.09;5113262;27;9932;-80
2022/10/09 08:31:50;;;;;;;;;75.25;65.00;;;;;18.56;65.07;99974.22;5117172;27;10150;-79
2022/10/09 08:34:19;;;;;;;;;79.00;69.00;;;;;19.12;63.13;99967.47;5093888;27;10016;-80
2022/10/09 08:36:50;;;;;;;;;73.75;63.50;;;;;19.33;61.96;99963.34;5072332;28;10067;-78
2022/10/09 08:39:19;;;;;;;;;77.25;69.75;;;;;19.59;61.07;99965.19;5080306;28;9855;-79
2022/10/09 08:41:49;;;;;;;;;72.00;60.50;;;;;19.71;60.35;99964.78;5083477;28;10071;-82
2022/10/09 08:44:22;;;;;;;;;72.75;62.50;;;;;20.21;59.20;99958.81;5052757;28;9778;-78
2022/10/09 08:47:03;;;;;;;;;72.50;59.50;;;;;20.41;58.15;99968.72;5068727;28;9628;-78
2022/10/09 08:49:42;;;;;;;;;72.25;59.00;;;;;20.15;59.17;99962.53;5071270;28;9571;-81
2022/10/09 08:52:21;;;;;;;;;73.75;64.00;;;;;20.01;59.48;99975.34;5072169;28;9719;-80
2022/10/09 08:54:50;;;;;;;;;73.50;61.50;;;;;19.59;61.40;99981.06;5067533;28;9873;-81
2022/10/09 08:57:22;;;;;;;;;71.75;58.50;;;;;19.81;60.44;99978.63;5073846;28;9960;-79
2022/10/09 08:59:51;;;;;;;;;72.00;61.50;;;;;20.42;58.91;99987.22;5061489;28;9695;-79
2022/10/09 09:02:35;;;;;;;;;71.75;62.25;;;;;20.62;58.19;99991.88;5047484;28;9751;-82
2022/10/09 09:05:19;;;;;;;;;73.25;62.25;;;;;19.72;61.41;99989.50;5025216;28;9797;-79
2022/10/09 09:07:57;;;;;;;;;82.75;77.00;;;;;19.39;62.09;99998.38;5028665;28;10389;-78
2022/10/09 09:10:37;;;;;;;;;73.00;61.25;;;;;18.93;64.42;99988.28;5035952;28;10570;-81
2022/10/09 09:13:19;;;;;;;;;72.00;61.00;;;;;18.76;64.77;99994.00;5052377;28;9914;-79
2022/10/09 09:15:58;;;;;;;;;71.00;57.75;;;;;19.24;63.66;100001.47;5052034;28;9887;-80
2022/10/09 09:18:37;;;;;;;;;73.25;61.50;;;;;19.88;61.40;99992.56;5068312;28;9571;-81
2022/10/09 09:21:17;;;;;;;;;74.00;64.50;;;;;20.35;59.87;99984.84;5035111;28;9715;-81
2022/10/09 09:23:48;;;;;;;;;74.50;64.25;;;;;20.00;60.68;99989.50;5066313;28;9985;-83
2022/10/09 09:26:20;;;;;;;;;70.75;57.50;;;;;19.42;62.44;99995.66;5037079;28;9882;-81
2022/10/09 09:28:53;;;;;;;;;71.00;56.25;;;;;19.80;61.89;99993.66;5050191;28;9730;-79
2022/10/09 09:31:26;;;;;;;;;87.00;80.75;;;;;20.14;60.79;100002.31;5062497;28;10514;-82
2022/10/09 09:34:04;;;;;;;;;74.25;66.00;;;;;20.67;59.34;99996.16;5035267;28;10955;-82
2022/10/09 09:36:39;;;;;;;;;53.75;42.75;;;;;21.16;58.26;99995.25;5076971;28;10130;-80
2022/10/09 09:39:10;;;;;;;;;73.00;63.50;;;;;21.56;57.02;99992.91;5062909;27;9863;-77
2022/10/09 09:42:06;;;;;;;;;73.00;61.75;;;;;21.68;56.35;99995.09;5118624;27;9688;-81
2022/10/09 09:44:39;;;;;;;;;72.00;61.75;;;;;21.42;56.82;99996.06;5081624;27;9710;-83
2022/10/09 09:47:15;;;;;;;;;72.75;65.50;;;;;21.73;55.94;100003.72;5084212;27;9779;-82
2022/10/09 09:49:56;;;;;;;;;74.75;63.75;;;;;21.88;56.35;99999.59;5106355;27;10033;-84
2022/10/09 09:52:28;;;;;;;;;65.33;53.33;;;;;22.22;55.61;99998.22;5087421;28;9643;-85
2022/10/09 09:54:59;;;;;;;;;67.00;54.67;;;;;22.55;54.64;99995.09;5027025;28;9266;-84
2022/10/09 09:57:35;;;;;;;;;69.67;56.00;;;;;22.86;53.59;99994.66;5001877;28;9332;-80
2022/10/09 10:00:17;;;;;;;;;73.33;59.67;;;;;21.94;55.85;99999.34;4995858;28;9321;-82
2022/10/09 10:02:49;;;;;;;;;68.33;54.33;;;;;21.20;58.33;99998.66;5009196;28;9423;-85
2022/10/09 10:05:23;;;;;;;;;70.33;55.00;;;;;21.61;57.30;99998.91;4998648;28;9412;-82
2022/10/09 10:07:56;;;;;;;;;72.00;57.00;;;;;21.97;56.36;100001.03;5014730;28;9390;-82
2022/10/09 10:10:27;;;;;;;;;71.33;56.67;;;;;21.88;56.07;100002.25;5017370;28;9329;-82
2022/10/09 10:12:59;;;;;;;;;68.67;55.67;;;;;22.11;56.13;100009.28;5046473;28;9076;-85
2022/10/09 10:15:30;;;;;;;;;64.00;52.00;;;;;20.97;58.42;100005.66;5070435;28;9039;-78
2022/10/09 10:18:02;;;;;;;;;65.75;52.50;;;;;20.68;59.07;100011.13;5068792;28;9179;-83
2022/10/09 10:20:42;;;;;;;;;69.67;58.00;;;;;20.38;60.01;100013.88;5090490;28;8942;-80
2022/10/09 10:23:23;;;;;;;;;68.50;55.00;;;;;20.10;60.98;100022.72;5098324;27;9158;-84
2022/10/09 10:25:54;;;;;;;;;67.33;53.67;;;;;20.10;61.20;100025.38;5094742;28;9475;-82
2022/10/09 10:28:32;;;;;;;;;64.67;52.00;;;;;20.81;59.51;100021.25;5112726;27;9310;-80
2022/10/09 10:31:05;;;;;;;;;67.00;54.00;;;;;20.98;58.18;100020.66;5110805;27;9088;-80
2022/10/09 10:33:37;;;;;;;;;65.00;52.00;;;;;19.93;61.68;100020.59;5084101;27;9177;-79
2022/10/09 10:36:10;;;;;;;;;66.67;53.67;;;;;19.61;63.36;100032.16;5110448;28;9357;-81
2022/10/09 10:38:46;;;;;;;;;69.75;55.50;;;;;19.61;63.69;100029.50;5098576;27;9174;-81
2022/10/09 10:41:22;;;;;;;;;70.50;57.00;;;;;20.08;62.29;100016.63;5093713;27;10392;-80
2022/10/09 10:43:58;;;;;;;;;74.00;63.75;;;;;20.61;60.61;100016.63;5111797;27;9699;-82
2022/10/09 10:46:31;;;;;;;;;68.75;55.50;;;;;20.86;59.76;100005.19;5110514;27;9561;-80
2022/10/09 10:49:00;;;;;;;;;67.00;54.00;;;;;21.48;58.04;100000.31;5107255;27;9558;-80
2022/10/09 10:51:50;;;;;;;;;70.67;59.33;;;;;21.72;57.50;100003.78;5115445;27;9331;-82
2022/10/09 10:54:34;;;;;;;;;73.50;64.00;;;;;21.77;57.40;99997.38;5006984;28;9600;-80
2022/10/09 10:57:15;;;;;;;;;67.33;56.00;;;;;22.41;56.16;99990.38;5025279;28;9880;-80
2022/10/09 10:59:53;;;;;;;;;67.67;55.00;;;;;22.59;54.58;99988.75;5020083;28;9332;-81
2022/10/09 11:03:01;;;;;;;;;69.33;55.00;;;;;21.49;56.92;99999.38;5023414;28;9397;-81
2022/10/09 11:05:55;;;;;;;;;62.67;51.00;;;;;21.72;56.43;99996.69;4991090;28;9424;-79
2022/10/09 11:08:57;;;;;;;;;56.00;47.50;;;;;22.32;55.21;99991.63;4899078;29;8976;-80
2022/10/09 11:11:36;;;;;;;;;68.33;54.00;;;;;21.81;56.18;99992.81;4932442;28;8959;-78
2022/10/09 11:14:18;;;;;;;;;68.25;54.75;;;;;21.77;56.07;99992.06;4882973;29;9425;-79
2022/10/09 11:17:01;;;;;;;;;69.00;54.33;;;;;21.93;55.63;99991.47;4914474;29;8865;-78
2022/10/09 11:19:52;;;;;;;;;80.00;71.50;;;;;22.47;54.36;99989.25;4899393;29;9225;-83
2022/10/09 11:22:41;;;;;;;;;65.67;53.67;;;;;22.36;53.71;99984.41;4919785;29;11007;-81
2022/10/09 11:25:26;;;;;;;;;68.33;55.33;;;;;22.45;52.81;99981.34;4943840;28;9199;-78
2022/10/09 11:28:02;;;;;;;;;58.75;49.50;;;;;23.02;51.05;99975.34;4948221;28;9295;-78
2022/10/09 11:30:37;;;;;;;;;60.25;50.00;;;;;23.55;49.91;99967.59;4936289;28;8883;-80
2022/10/09 11:33:18;;;;;;;;;63.00;49.67;;;;;23.12;50.65;99979.38;5011284;28;8869;-80
2022/10/09 11:35:52;;;;;;;;;64.00;52.00;;;;;23.02;50.71;99980.66;5012373;28;9098;-83
2022/10/09 11:38:28;;;;;;;;;58.25;48.00;;;;;23.59;50.11;99976.28;5030305;28;8884;-79
2022/10/09 11:40:59;;;;;;;;;63.25;51.00;;;;;23.55;49.53;99980.00;5025822;28;8868;-81
2022/10/09 11:43:54;;;;;;;;;63.50;49.75;;;;;22.84;50.12;99972.59;5036386;28;8904;-78